Willow Island, NE (69171)

9:54 AM CDT on March 28, 2017 (GMT -0500)
KNEGOTHE4 | | Change Station
Active Advisory: Dense Fog Advisory

Elev 2572 ft 40.92 °N, 100.17 °W | Updated 4 minutes ago

Rain
Rain
43.7 °F
Feels Like 42 °F
N
4.0
Wind Variable Wind from ESE
Gusts 4.0 mph

Today
High -- | Low -- °F
--% Chance of Precip.
Yesterday
High -- | Low -- °F
Precip. -- in
Pressure 30.03 in
Visibility 4.0 miles
Clouds Overcast 300 ft
Windchill 42 °F
Dew Point 41 °F
Humidity 90%
Rainfall 0.00 in
Snow Depth Not available.
7:29 AM 8:01 PM
New Moon, 0% visible
METAR KLXN 281435Z AUTO 11007G16KT 4SM BR OVC003 07/06 A3003 RMK AO2 T00700062
Pressure 30.03 in
Visibility 4.0 miles
Clouds Overcast 300 ft
Windchill 42 °F
Dew Point 41 °F
Humidity 90%
Rainfall 0.00 in
Snow Depth Not available.
7:29 AM 8:01 PM
New Moon, 0% visible
METAR KLXN 281435Z AUTO 11007G16KT 4SM BR OVC003 07/06 A3003 RMK AO2 T00700062

Get Your Daily Forecast Email!

Thanks for signing up!

Be on the lookout for a verification email in your inbox.

You'll start receiving severe weather alerts in your inbox..

×

10-Day Weather Forecast

Almanac

Astronomy

Mar. 28, 2017 Rise Set
Actual Time
Civil Twilight
Nautical Twilight
Astronomical Twilight
Moon
Length of Visible Light
Length of Day
Tomorrow will be .
, % of the Moon is Illuminated

Today's Extremes

State Highs State Lows

Community

WunderPhotos

Upload Photos

1,962,540 photos uploaded!

WunderBlog® & News

Nearby

Air Quality

  Air Quality AQ Index Pollutant
Not available.

Snow Depth

Station Depth Elevation

Earthquake Activity

City Distance Mag. Time & Date
Minimum magnitude displayed is 2.5.

Earthquake Activity

City Distance Mag. Time & Date
Minimum magnitude displayed is 2.5.

Coastal Water Temperatures

Place Temperature

Stations

Nearby Weather Stations

Station Location Temp. Windchill Dew Point Humidity Wind Precip. Elev Updated Type
                   

Watches & Warnings

Dense Fog Advisory
Issued: 3:54 AM CDT Mar. 28, 2017 – National Weather Service

... Dense fog advisory in effect until 10 am CDT this morning...

The National Weather Service in Hastings has issued a dense fog
advisory, which is in effect until 10 am CDT this morning.

* Visibility... visibility will be quite variable this morning, but
several locations will see dense fog with visibilities as low as
one quarter mile.

* Impacts... drivers should take caution and allow extra time when
driving this morning. Visibility could change quite
significantly over short distances.

Precautionary/preparedness actions...

A dense fog advisory means visibilities will frequently be
reduced to less than one quarter mile. If driving, slow down, use
your headlights, and leave plenty of distance ahead of you.